Terminal Aerodrome Forecast
Issued by NWS Norman, OK

Home | Current Version | Previous Version | Text Only | Print | Product List | Glossary On
Versions: 1 2 3 4 5 6 7 8 9 10 11 12 13
000
FTUS44 KOUN 210537 AAA
TAFSPS
TAF AMD
KSPS 210537Z 2106/2206 16008KT 6SM -RA BR SCT005 OVC060
      TEMPO 2106/2108 3SM -TSRA BR BKN005CB
     FM210800 16007KT 5SM BR BKN005
     FM211500 20007KT P6SM BKN009
     FM211600 21007KT P6SM BKN015
     FM211900 36008KT P6SM SCT035=

USA.gov is the U.S. government's official web portal to all federal, state and local government web resources and services.